Nearby METAR Reports

 

KBML - Berlin, NH
Updated: Thu, 15-Nov-2018 4:52am EST
Clear
Clear
 Wind from calm
Wind: Calm
Temperature: -2°F , -19°C
Dew Point: -6°F , -21°C
Humidity: 84%
Barometer: 30.53 inHg , 1033.9 hPa
Clouds: Clear
Visibility: 10 miles , 16 km
2018/11/15 09:52 KBML 150952Z AUTO 00000KT 10SM CLR M19/M21 A3053 RMK AO2 SLP370 T11891211
KCON - Concord, NH
Updated: Thu, 15-Nov-2018 4:51am EST
Clear
Clear
 Wind from W
Wind: W 5 mph , 7 km/h
Temperature: 18°F , -8°C
Wind Chill: 11°F , -12°C
Dew Point: 9°F , -13°C
Humidity: 68%
Barometer: 30.59 inHg , 1035.9 hPa
Clouds: Clear
Visibility: 10 miles , 16 km
2018/11/15 09:51 KCON 150951Z AUTO 28004KT 10SM CLR M08/M13 A3059 RMK AO2 SLP366 T10831133
KAFN - Lebanon, NH
Updated: Thu, 15-Nov-2018 4:52am EST
Clear
Clear
 Wind from calm
Wind: Calm
Temperature: 18°F , -8°C
Dew Point: 7°F , -14°C
Humidity: 62%
Barometer: 30.54 inHg , 1034.2 hPa
Clouds: Clear
Visibility: 10 miles , 16 km
2018/11/15 09:52 KAFN 150952Z AUTO 00000KT 10SM CLR M08/M14 A3054 RMK AO2 SLP365 T10831139
 
KMHT - Manchester, NH
Updated: Thu, 15-Nov-2018 4:53am EST
Partly cloudy
Partly cloudy
 Wind from N
Wind: N 5 mph , 7 km/h
Temperature: 19°F , -7°C
Wind Chill: 12°F , -11°C
Dew Point: 7°F , -14°C
Humidity: 58%
Barometer: 30.57 inHg , 1035.2 hPa
Clouds: Partly cloudy
Visibility: 10 miles , 16 km
Cloud details: Partly cloudy 25000 ft
2018/11/15 09:53 KMHT 150953Z 35004KT 10SM SCT250 M07/M14 A3057 RMK AO2 SLP373 T10671144
KMWN - Mount Washington
Updated: Thu, 15-Nov-2018 4:54am EST
Mostly cloudy
Mostly cloudy
 Wind from NW
Wind: NW 35 mph , 56 km/h
Temperature: 7°F , -14°C
Wind Chill: -18°F , -28°C
Dew Point: -17°F , -27°C
Humidity: 33%
Clouds: Mostly cloudy
Visibility: 130 miles , 208 km
Cloud details: Few Clouds 5000 ft
Few Clouds 12000 ft
Partly cloudy 18000 ft
Mostly cloudy 25000 ft
2018/11/15 09:54 KMWN 150954Z 32030KT 130SM FEW050 FEW120 SCT180 BKN250 M14/M27 RMK PTCHY VLY FG W-NE
K25B - Portsmouth Harbor
Updated: Wed, 31-Dec-1969 7:00pm EST
NOT Current
unable to load K25B data RC=404 Not Found
unable to load K25B data RC=404 Not Found
 
 
KDDH - Bennington, VT
Updated: Thu, 15-Nov-2018 4:54am EST
Clear
Clear
 Wind from SSW
Wind: SSW 3 mph , 6 km/h
Temperature: 18°F , -8°C
Dew Point: 10°F , -12°C
Humidity: 73%
Barometer: 30.57 inHg , 1035.2 hPa
Clouds: Clear
Visibility: 10 miles , 16 km
2018/11/15 09:54 KDDH 150954Z AUTO 21003KT 10SM CLR M08/M12 A3057 RMK AO2 SLP366 T10831122
K9B2 - Newport, VT
Updated: Wed, 31-Dec-1969 7:00pm EST
NOT Current
unable to load K9B2 data RC=404 Not Found
unable to load K9B2 data RC=404 Not Found
 
K1V4 - St Johnsbury, VT
Updated: Thu, 15-Nov-2018 4:54am EST

 
Temperature: 3°F , -16°C
Dew Point: 1°F , -17°C
Humidity: 92%
Barometer: 30.59 inHg , 1035.9 hPa
2018/11/15 09:54 K1V4 150954Z AUTO M16/M17 A3059 RMK AO1 SLP385 T11561172
 
KBGR - Bangor, ME
Updated: Thu, 15-Nov-2018 4:53am EST
Clear
Clear
 Wind from NW
Wind: NW 6 mph , 9 km/h
Temperature: 12°F , -11°C
Wind Chill: 2°F , -17°C
Dew Point: 3°F , -16°C
Humidity: 67%
Barometer: 30.56 inHg , 1034.9 hPa
Clouds: Clear
Visibility: 10 miles , 16 km
2018/11/15 09:53 KBGR 150953Z 32005KT 10SM CLR M11/M16 A3056 RMK AO2 SLP353 T11061156
KBHB - Bar Harbor, ME
Updated: Thu, 15-Nov-2018 4:56am EST
Clear
Clear
 Wind from NW
Wind: NW 12 mph , 19 km/h
Temperature: 16°F , -9°C
Wind Chill: 3°F , -16°C
Dew Point: 3°F , -16°C
Humidity: 57%
Barometer: 30.55 inHg , 1034.5 hPa
Clouds: Clear
Visibility: 10 miles , 16 km
2018/11/15 09:56 KBHB 150956Z AUTO 32010KT 10SM CLR M09/M16 A3055 RMK AO2 SLP349 T10941156 FZRANO
74389 - Gray, ME
Updated: Wed, 31-Dec-1969 7:00pm EST
NOT Current
74389 not loaded
74389 not loaded
 
 
KGNR - Greenville,ME
Updated: Thu, 15-Nov-2018 4:56am EST

 Wind from calm
Wind: Calm
Temperature: 7°F , -14°C
Dew Point: 1°F , -17°C
Humidity: 78%
Barometer: 30.44 inHg , 1030.8 hPa
2018/11/15 09:56 KGNR 150956Z AUTO 00000KT M14/M17 A3044 RMK AO1 SLP343 T11391172
KOLD - Old Town, ME
Updated: Wed, 31-Dec-1969 7:00pm EST
NOT Current
unable to load KOLD data RC=404 Not Found
unable to load KOLD data RC=404 Not Found
 
KRUM - Rumford, ME
Updated: Wed, 31-Dec-1969 7:00pm EST
NOT Current
unable to load KRUM data RC=404 Not Found
unable to load KRUM data RC=404 Not Found
 










Contact Us

© 2018, johnsnhweather | Weather-Display (10.37S-(b82)) | Valid XHTML 1.0 | Valid CSS

This website is neither affiliated with nor endorsed by the National Weather Service, the town of Pittsburg or any other government agency.
The weather data contained herein is offered without any warranties expressed or implied, and is meant to supplement NOAA weather forecasts and information. Never base important decisions that could result in harm to people or property on this weather information.